createdAt,value
2019-03-25T00:02:08.256Z,56.9
2019-03-25T00:07:13.529Z,57
2019-03-25T00:12:19.014Z,57.1
2019-03-25T00:17:23.952Z,57.4
2019-03-25T00:22:29.151Z,57.4
2019-03-25T00:27:34.678Z,57.8
2019-03-25T00:32:39.884Z,57.9
2019-03-25T00:37:45.252Z,58.5
2019-03-25T00:42:50.588Z,58.8
2019-03-25T00:47:55.642Z,58.9
2019-03-25T00:52:59.514Z,59.3
2019-03-25T00:58:04.992Z,59.6
2019-03-25T01:03:10.508Z,60.1
2019-03-25T01:08:15.715Z,61.1
2019-03-25T01:13:21.091Z,63
2019-03-25T01:18:24.922Z,62.8
2019-03-25T01:23:30.208Z,63.8
2019-03-25T01:28:35.432Z,64.3
2019-03-25T01:33:40.684Z,64.5
2019-03-25T01:38:45.912Z,63.9
2019-03-25T01:43:50.989Z,63.5
2019-03-25T01:48:56.466Z,63.3
2019-03-25T01:54:01.804Z,63.5
2019-03-25T01:59:07.188Z,63.5
2019-03-25T02:04:12.853Z,63.7
2019-03-25T02:09:18.056Z,63.7
2019-03-25T02:14:23.882Z,63.5
2019-03-25T02:19:29.248Z,63.4
2019-03-25T02:24:34.639Z,63.5
2019-03-25T02:29:40.268Z,64
2019-03-25T02:34:45.813Z,64
2019-03-25T02:39:51.001Z,64.4
2019-03-25T02:44:56.851Z,64.8
2019-03-25T02:50:02.115Z,64.9
2019-03-25T02:55:07.749Z,65.1
2019-03-25T03:00:12.762Z,64.9
2019-03-25T03:05:16.427Z,64.3
2019-03-25T03:10:21.562Z,64.3
2019-03-25T03:15:26.881Z,65.4
2019-03-25T03:20:32.053Z,66.7
2019-03-25T03:25:37.233Z,67.5
2019-03-25T03:30:42.633Z,67.7
2019-03-25T03:35:49.302Z,68.7
2019-03-25T03:40:54.968Z,69.1
2019-03-25T03:46:00.286Z,69.1
2019-03-25T03:51:05.780Z,69.1
2019-03-25T03:56:16.496Z,69.7
2019-03-25T04:01:11.582Z,69.7
2019-03-25T04:06:16.766Z,70
2019-03-25T04:11:21.796Z,70.7
2019-03-25T04:16:27.346Z,71.2
2019-03-25T04:21:32.442Z,70.8
2019-03-25T04:26:37.585Z,70.4
2019-03-25T04:31:42.082Z,69.5
2019-03-25T04:36:47.801Z,69.9
2019-03-25T04:41:52.946Z,69
2019-03-25T04:46:58.356Z,68.6
2019-03-25T04:52:03.500Z,68.3
2019-03-25T04:57:09.024Z,68
2019-03-25T05:02:12.997Z,67.8
2019-03-25T05:07:18.228Z,67.4
2019-03-25T05:12:23.417Z,67.4
2019-03-25T05:17:27.844Z,67
2019-03-25T05:22:33.069Z,66.8
2019-03-25T05:27:38.884Z,66.4
2019-03-25T05:32:44.093Z,66
2019-03-25T05:37:49.755Z,66.1
2019-03-25T05:42:54.848Z,66.1
2019-03-25T05:48:00.114Z,65.9
2019-03-25T05:53:05.445Z,65.9
2019-03-25T05:58:10.720Z,65.2
2019-03-25T06:03:15.837Z,64.7
2019-03-25T06:08:21.304Z,64.9
2019-03-25T06:13:27.749Z,64.6
2019-03-25T06:18:33.208Z,64.4
2019-03-25T06:23:38.228Z,63.8
2019-03-25T06:28:43.503Z,63.5
2019-03-25T06:33:49.114Z,62.4
2019-03-25T06:38:54.267Z,62.3
2019-03-25T06:43:59.651Z,62.6
2019-03-25T06:49:04.943Z,62.5
2019-03-25T06:54:10.498Z,62.4
2019-03-25T06:59:15.697Z,64.1
2019-03-25T07:04:20.938Z,63.5
2019-03-25T07:09:26.884Z,62.7
2019-03-25T07:14:31.925Z,62.7
2019-03-25T07:19:38.549Z,61.9
2019-03-25T07:24:44.082Z,62
2019-03-25T07:29:49.383Z,61
2019-03-25T07:34:55.226Z,59.8
2019-03-25T07:40:00.603Z,59.8
2019-03-25T07:45:04.804Z,58.7
2019-03-25T07:50:10.391Z,58.6
2019-03-25T07:55:15.605Z,58.6
2019-03-25T08:00:20.795Z,58.3
2019-03-25T08:05:26.192Z,58.6
2019-03-25T08:10:31.549Z,58
2019-03-25T08:15:36.653Z,57.1
2019-03-25T08:20:44.628Z,57.1
2019-03-25T08:25:49.621Z,56.7
2019-03-25T08:30:55.135Z,56.2
2019-03-25T08:36:00.612Z,53.3
2019-03-25T08:46:11.861Z,53.2
2019-03-25T08:51:17.493Z,49.5
2019-03-25T08:56:22.715Z,49.5
2019-03-25T09:01:26.692Z,45.4
2019-03-25T09:06:31.787Z,44.5
2019-03-25T09:11:36.964Z,45
2019-03-25T09:16:42.099Z,44.9
2019-03-25T09:21:47.437Z,45.3
2019-03-25T09:26:52.887Z,45.3
2019-03-25T09:31:56.717Z,45.3
2019-03-25T09:37:00.478Z,46.3
2019-03-25T09:42:05.746Z,47
2019-03-25T09:47:11.117Z,47.1
2019-03-25T09:57:22.612Z,48.4
2019-03-25T10:02:27.812Z,48.5
2019-03-25T10:07:33.323Z,48.6
2019-03-25T10:12:38.560Z,48.1
2019-03-25T10:17:43.910Z,49
2019-03-25T10:22:49.096Z,48.9
2019-03-25T10:27:52.739Z,48.8
2019-03-25T10:32:57.998Z,48.3
2019-03-25T10:38:03.642Z,47.7
2019-03-25T10:43:08.776Z,47.7
2019-03-25T10:48:14.186Z,47.7
2019-03-25T10:53:19.443Z,47.3
2019-03-25T10:58:24.597Z,47.9
2019-03-25T11:03:30.917Z,48
2019-03-25T11:08:34.676Z,48
2019-03-25T11:13:40.104Z,49.6
2019-03-25T11:18:45.215Z,49.1
2019-03-25T11:23:50.265Z,50.5
2019-03-25T11:28:55.483Z,50.5
2019-03-25T11:33:59.041Z,51.1
2019-03-25T11:39:04.606Z,50.9
2019-03-25T11:44:09.788Z,50.9
2019-03-25T11:49:14.696Z,51.6
2019-03-25T11:54:19.821Z,52
2019-03-25T11:59:25.437Z,51.3
2019-03-25T12:04:29.576Z,51.6
2019-03-25T12:09:34.290Z,51.6
2019-03-25T12:14:39.720Z,51.6
2019-03-25T12:19:45.056Z,51.3
2019-03-25T12:24:48.885Z,49.5
2019-03-25T12:29:53.972Z,48.8
2019-03-25T12:34:59.312Z,48
2019-03-25T12:40:03.365Z,47.7
2019-03-25T12:45:09.727Z,47.6
2019-03-25T12:50:14.909Z,47.4
2019-03-25T12:55:20.161Z,47.7
2019-03-25T13:00:25.275Z,47.6
2019-03-25T13:05:33.306Z,47.8
2019-03-25T13:10:37.597Z,48.6
2019-03-25T13:15:45.837Z,48.6
2019-03-25T13:20:51.357Z,48.5
2019-03-25T13:25:56.841Z,48.6
2019-03-25T13:31:01.862Z,48.3
2019-03-25T13:36:07.328Z,47.9
2019-03-25T13:41:12.974Z,48.4
2019-03-25T13:46:18.401Z,48.4
2019-03-25T13:51:23.712Z,48.4
2019-03-25T13:56:28.748Z,48.6
2019-03-25T14:01:34.288Z,49.3
2019-03-25T14:06:39.784Z,48.8
2019-03-25T14:11:45.025Z,50.8
2019-03-25T14:16:50.225Z,49.6
2019-03-25T14:21:55.437Z,48.9
2019-03-25T14:27:00.508Z,48.6
2019-03-25T14:32:07.265Z,48.1
2019-03-25T14:37:12.568Z,48.1
2019-03-25T14:42:17.653Z,48.7
2019-03-25T14:47:22.987Z,48.6
2019-03-25T14:52:28.080Z,48.2
2019-03-25T14:57:33.247Z,48.5
2019-03-25T15:02:39.580Z,48
2019-03-25T15:07:45.204Z,47.9
2019-03-25T15:12:50.302Z,47.9
2019-03-25T15:17:56.072Z,47.7
2019-03-25T15:23:01.462Z,48
2019-03-25T15:28:06.686Z,47.6
2019-03-25T15:33:11.808Z,45.6
2019-03-25T15:38:17.056Z,42.9
2019-03-25T15:43:22.204Z,40.6
2019-03-25T15:48:27.641Z,39.3
2019-03-25T15:53:33.029Z,39.2
2019-03-25T15:58:38.228Z,40.1
2019-03-25T16:03:42.814Z,39.7
2019-03-25T16:08:48.329Z,39.8
2019-03-25T16:13:53.385Z,40.3
2019-03-25T16:18:58.638Z,40
2019-03-25T16:24:03.781Z,40
2019-03-25T16:29:09.307Z,40.1
2019-03-25T16:34:17.761Z,41.2
2019-03-25T16:39:23.719Z,42.1
2019-03-25T16:49:32.518Z,38.3
2019-03-25T16:54:37.906Z,36.6
2019-03-25T16:59:43.239Z,36.9
2019-03-25T17:04:48.373Z,37.2
2019-03-25T17:09:53.738Z,37.4
2019-03-25T17:14:58.945Z,38
2019-03-25T17:20:04.710Z,38.1
2019-03-25T17:25:09.953Z,38
2019-03-25T17:30:16.428Z,38.4
2019-03-25T17:35:21.783Z,38.6
2019-03-25T17:40:27.491Z,39
2019-03-25T17:45:32.840Z,39.1
2019-03-25T17:50:38.146Z,39.2
2019-03-25T17:55:43.294Z,39.1
2019-03-25T18:00:48.402Z,39.5
2019-03-25T18:05:55.318Z,40.1
2019-03-25T18:11:01.344Z,40.1
2019-03-25T18:16:06.874Z,40.3
2019-03-25T18:21:11.243Z,41.3
2019-03-25T18:26:16.471Z,41.3
2019-03-25T18:31:17.583Z,41.5
2019-03-25T18:36:22.491Z,41.8
2019-03-25T18:41:27.818Z,42
2019-03-25T18:46:34.297Z,43
2019-03-25T18:51:39.607Z,43
2019-03-25T18:56:45.127Z,43.7
2019-03-25T19:01:58.465Z,43.2
2019-03-25T19:06:58.517Z,43.1
2019-03-25T19:12:04.328Z,43.6
2019-03-25T19:17:09.964Z,43.6
2019-03-25T19:22:15.499Z,44.1
2019-03-25T19:27:23.739Z,44.4
2019-03-25T19:32:29.282Z,44.4
2019-03-25T19:37:34.455Z,44.9
2019-03-25T19:42:39.834Z,45.5
2019-03-25T19:47:45.030Z,45.8
2019-03-25T19:52:50.759Z,46.2
2019-03-25T19:57:56.118Z,46.1
2019-03-25T20:03:03.547Z,46.4
2019-03-25T20:08:18.327Z,46.6
2019-03-25T20:13:17.517Z,46.7
2019-03-25T20:18:22.673Z,46.7
2019-03-25T20:23:26.820Z,46.9
2019-03-25T20:28:32.118Z,47.1
2019-03-25T20:33:37.747Z,47.6
2019-03-25T20:38:42.930Z,47.6
2019-03-25T20:43:48.277Z,46.7
2019-03-25T20:48:54.577Z,47
2019-03-25T20:54:00.047Z,47.4
2019-03-25T20:59:07.013Z,49.1
2019-03-25T21:04:13.079Z,49.1
2019-03-25T21:09:17.261Z,49.1
2019-03-25T21:14:25.025Z,49.5
2019-03-25T21:19:30.582Z,50.1
2019-03-25T21:24:36.562Z,51
2019-03-25T21:29:41.991Z,50.9
2019-03-25T21:34:47.635Z,51.7
2019-03-25T21:39:53.612Z,51.9
2019-03-25T21:44:59.269Z,51.9
2019-03-25T21:50:04.931Z,52.1
2019-03-25T21:55:10.465Z,51.5
2019-03-25T22:00:14.510Z,52.3
2019-03-25T22:05:21.629Z,52.6
2019-03-25T22:10:25.832Z,52.7
2019-03-25T22:15:31.111Z,52.7
2019-03-25T22:20:36.621Z,52.8
2019-03-25T22:25:42.152Z,52.9
2019-03-25T22:30:47.143Z,53
2019-03-25T22:35:52.526Z,53.2
2019-03-25T22:40:58.080Z,53.4
2019-03-25T22:46:03.323Z,53.6
2019-03-25T22:51:08.374Z,53.7
2019-03-25T22:56:14.019Z,54.1
2019-03-25T23:01:19.076Z,54.4
2019-03-25T23:06:24.581Z,54.5
2019-03-25T23:11:30.106Z,54.7
2019-03-25T23:16:35.488Z,55.4
2019-03-25T23:21:41.132Z,55.1
2019-03-25T23:26:46.505Z,55.3
2019-03-25T23:31:51.572Z,55.5
2019-03-25T23:36:56.811Z,55.4
2019-03-25T23:42:02.109Z,55.6
2019-03-25T23:47:07.476Z,55.7
2019-03-25T23:52:13.245Z,56
2019-03-25T23:57:17.425Z,56
